Time;durP1;ratioP1;P1;durP2;ratioP2;P2;SDS_P1;SDS_P2;PMS_P1;PMS_P2;Temp;Humidity;BMP_temperature;BMP_pressure;BME280_temperature;BME280_humidity;BME280_pressure;Samples;Min_cycle;Max_cycle;Signal;HPM_P1;HPM_P2
2022/07/25 00:00:31;;;;;;;6.20;5.50;;;;;;;19.08;100.00;99707.00;1641066;87;21624;-56
2022/07/25 00:02:58;;;;;;;7.13;6.37;;;;;;;19.06;100.00;99703.84;1640601;87;22406;-57
2022/07/25 00:05:26;;;;;;;7.37;6.27;;;;;;;18.99;100.00;99701.92;1640878;87;21016;-56
2022/07/25 00:07:53;;;;;;;8.30;6.23;;;;;;;18.96;100.00;99697.94;1639707;87;21029;-64
2022/07/25 00:10:21;;;;;;;7.17;5.67;;;;;;;18.96;100.00;99693.97;1640534;87;21473;-56
2022/07/25 00:12:51;;;;;;;7.97;5.90;;;;;;;18.96;100.00;99697.14;1640854;87;21517;-55
2022/07/25 00:15:18;;;;;;;8.40;6.10;;;;;;;18.89;100.00;99696.02;1640552;87;21192;-55
2022/07/25 00:17:46;;;;;;;10.37;6.13;;;;;;;18.87;100.00;99693.38;1640112;86;21007;-66
2022/07/25 00:20:14;;;;;;;6.50;5.57;;;;;;;18.79;100.00;99694.63;1639791;87;21015;-57
2022/07/25 00:22:44;;;;;;;6.47;5.47;;;;;;;18.75;100.00;99687.44;1640421;87;21059;-57
2022/07/25 00:25:12;;;;;;;6.93;5.60;;;;;;;18.67;100.00;99691.30;1640283;87;21549;-56
2022/07/25 00:27:40;;;;;;;6.97;6.27;;;;;;;18.59;100.00;99695.19;1639841;87;21550;-62
2022/07/25 00:30:09;;;;;;;7.73;6.93;;;;;;;18.52;100.00;99693.27;1640160;87;21426;-59
2022/07/25 00:32:36;;;;;;;7.70;6.20;;;;;;;18.47;100.00;99691.91;1640764;87;21052;-55
2022/07/25 00:35:04;;;;;;;8.07;6.47;;;;;;;18.41;100.00;99690.25;1640557;87;21040;-55
2022/07/25 00:37:31;;;;;;;7.53;6.27;;;;;;;18.35;100.00;99688.09;1641012;87;21012;-56
2022/07/25 00:39:59;;;;;;;11.63;6.67;;;;;;;18.31;100.00;99691.48;1640530;87;21167;-63
2022/07/25 00:42:26;;;;;;;9.17;6.00;;;;;;;18.32;100.00;99691.75;1640987;87;22498;-56
2022/07/25 00:44:53;;;;;;;7.43;5.87;;;;;;;18.30;100.00;99693.85;1640753;87;21424;-55
2022/07/25 00:47:21;;;;;;;6.83;5.57;;;;;;;18.29;100.00;99691.71;1640940;87;21021;-56
2022/07/25 00:49:48;;;;;;;8.90;5.80;;;;;;;18.27;100.00;99694.34;1640302;87;21103;-65
2022/07/25 00:52:16;;;;;;;7.57;5.63;;;;;;;18.28;100.00;99690.65;1639878;87;21715;-56
2022/07/25 00:54:43;;;;;;;6.33;5.63;;;;;;;18.30;100.00;99693.85;1640494;87;21123;-58
2022/07/25 00:57:10;;;;;;;6.80;5.80;;;;;;;18.28;100.00;99691.97;1640688;87;21083;-56
2022/07/25 00:59:37;;;;;;;7.60;6.00;;;;;;;18.30;100.00;99693.33;1640804;87;21026;-56
2022/07/25 01:02:05;;;;;;;7.90;6.00;;;;;;;18.28;100.00;99691.97;1639805;87;21063;-64
2022/07/25 01:04:33;;;;;;;7.33;5.53;;;;;;;18.26;100.00;99686.95;1640651;87;21414;-57
2022/07/25 01:07:01;;;;;;;6.63;5.93;;;;;;;18.27;100.00;99689.06;1640678;87;21011;-56
2022/07/25 01:09:29;;;;;;;6.50;5.33;;;;;;;18.28;100.00;99689.33;1602589;87;21055;-58
2022/07/25 01:11:56;;;;;;;6.03;4.80;;;;;;;18.26;100.00;99688.77;1640956;87;20992;-65
2022/07/25 01:14:23;;;;;;;8.10;5.70;;;;;;;18.23;100.00;99694.83;1640184;87;21001;-57
2022/07/25 01:16:51;;;;;;;7.93;5.50;;;;;;;18.24;100.00;99698.26;1640940;87;21984;-56
2022/07/25 01:19:19;;;;;;;6.43;5.73;;;;;;;18.24;100.00;99698.26;1640584;87;21027;-56
2022/07/25 01:21:46;;;;;;;5.80;5.13;;;;;;;18.16;100.00;99702.13;1640892;87;20969;-56
2022/07/25 01:24:13;;;;;;;6.13;5.47;;;;;;;18.13;100.00;99698.66;1639908;87;21048;-58
2022/07/25 01:26:41;;;;;;;6.20;5.60;;;;;;;18.12;100.00;99701.55;1640231;86;21103;-56
2022/07/25 01:29:09;;;;;;;6.80;6.07;;;;;;;18.14;100.00;99696.29;1640361;87;20953;-56
2022/07/25 01:31:37;;;;;;;7.00;6.30;;;;;;;18.06;100.00;99697.25;1640209;87;21009;-56
2022/07/25 01:34:04;;;;;;;7.57;6.03;;;;;;;18.03;100.00;99695.89;1639735;87;21059;-63
2022/07/25 01:36:31;;;;;;;10.03;6.77;;;;;;;17.99;100.00;99700.89;1639558;87;21139;-60
2022/07/25 01:38:59;;;;;;;8.77;6.30;;;;;;;17.98;100.00;99699.80;1640599;87;21562;-57
2022/07/25 01:41:26;;;;;;;8.77;7.87;;;;;;;17.89;100.00;99699.95;1640343;87;21298;-57
2022/07/25 01:43:53;;;;;;;7.50;6.70;;;;;;;17.92;100.00;99694.99;1639144;87;21600;-58
2022/07/25 01:46:20;;;;;;;7.57;6.47;;;;;;;17.91;100.00;99704.45;1639973;87;21072;-57
2022/07/25 01:48:48;;;;;;;7.73;6.80;;;;;;;17.86;100.00;99703.08;1639773;87;21148;-56
2022/07/25 01:51:15;;;;;;;7.53;6.73;;;;;;;17.85;100.00;99707.55;1640370;87;21924;-57
2022/07/25 01:53:42;;;;;;;8.17;7.07;;;;;;;17.86;100.00;99705.19;1640098;87;21132;-56
2022/07/25 01:56:09;;;;;;;7.50;6.70;;;;;;;17.83;100.00;99707.52;1639125;87;21056;-57
2022/07/25 01:58:38;;;;;;;6.93;6.23;;;;;;;17.82;100.00;99707.24;1640270;87;21047;-59
2022/07/25 02:01:05;;;;;;;8.90;6.60;;;;;;;17.79;100.00;99704.56;1639955;87;21139;-56
2022/07/25 02:03:33;;;;;;;6.90;6.20;;;;;;;17.77;100.00;99705.34;1640131;87;21047;-56
2022/07/25 02:06:06;;;;;;;8.97;6.60;;;;;;;17.71;100.00;99713.66;1644236;87;21907;-58
2022/07/25 02:08:33;;;;;;;8.40;6.53;;;;;;;17.88;100.00;99703.13;1645400;87;20944;-64
2022/07/25 02:11:02;;;;;;;7.50;6.70;;;;;;;17.83;100.00;99704.35;1645356;87;21443;-58
2022/07/25 02:13:31;;;;;;;8.40;6.00;;;;;;;17.89;100.00;99707.87;1645196;87;21321;-64
2022/07/25 02:15:58;;;;;;;8.53;6.43;;;;;;;18.07;100.00;99710.70;1645223;87;21040;-58
2022/07/25 02:18:25;;;;;;;7.63;6.10;;;;;;;18.19;100.00;99710.87;1620986;87;21196;-57
2022/07/25 02:20:53;;;;;;;7.23;6.00;;;;;;;18.40;100.00;99710.56;1644230;87;21067;-57
2022/07/25 02:23:21;;;;;;;9.03;6.80;;;;;;;18.62;100.00;99703.94;1644787;87;21078;-65
2022/07/25 02:25:49;;;;;;;9.63;6.50;;;;;;;18.87;100.00;99702.63;1644872;87;21095;-58
2022/07/25 02:28:16;;;;;;;7.50;6.50;;;;;;;19.14;100.00;99703.37;1644987;87;21134;-56
2022/07/25 02:30:45;;;;;;;7.20;5.47;;;;;;;19.37;100.00;99701.41;1645099;87;21088;-64
2022/07/25 02:33:12;;;;;;;7.23;6.43;;;;;;;19.58;100.00;99703.11;1645089;87;21063;-56
2022/07/25 02:35:40;;;;;;;6.97;6.00;;;;;;;19.92;100.00;99696.18;1644864;87;21036;-56
2022/07/25 02:38:08;;;;;;;6.83;6.13;;;;;;;20.26;100.00;99701.06;1645344;87;21501;-56
2022/07/25 02:40:36;;;;;;;6.67;5.50;;;;;;;20.45;100.00;99693.44;1645327;87;21036;-58
2022/07/25 02:43:03;;;;;;;6.63;5.63;;;;;;;20.51;100.00;99691.91;1644800;87;22066;-57
2022/07/25 02:45:31;;;;;;;8.13;5.83;;;;;;;20.49;100.00;99690.03;1644938;87;21044;-56
2022/07/25 02:47:59;;;;;;;8.00;6.07;;;;;;;20.45;100.00;99700.06;1645353;87;21099;-56
2022/07/25 02:50:26;;;;;;;6.73;5.07;;;;;;;20.43;100.00;99692.39;1645518;87;20960;-56
2022/07/25 02:52:53;;;;;;;6.13;5.53;;;;;;;20.44;100.00;99690.00;1645220;87;20968;-66
2022/07/25 02:55:21;;;;;;;8.43;5.80;;;;;;;20.48;100.00;99688.95;1645354;87;21636;-56
2022/07/25 02:57:48;;;;;;;6.63;5.70;;;;;;;20.58;100.00;99685.04;1645501;87;21581;-56
2022/07/25 03:00:16;;;;;;;6.27;5.67;;;;;;;20.67;100.00;99683.45;1645824;87;21012;-56
2022/07/25 03:02:44;;;;;;;8.37;6.10;;;;;;;20.77;100.00;99673.41;1645482;87;21028;-65
2022/07/25 03:05:13;;;;;;;6.33;5.40;;;;;;;20.98;100.00;99669.67;1638456;86;21797;-56
2022/07/25 03:07:41;;;;;;;7.07;5.23;;;;;;;21.23;100.00;99663.56;1604518;88;21356;-56
2022/07/25 03:10:10;;;;;;;6.60;5.93;;;;;;;21.60;100.00;99668.55;1631949;87;21062;-59
2022/07/25 03:12:38;;;;;;;6.03;5.43;;;;;;;21.98;100.00;99672.13;1604378;89;21079;-61
2022/07/25 03:15:07;;;;;;;8.43;6.00;;;;;;;22.42;100.00;99669.51;1631785;87;21931;-56
2022/07/25 03:17:35;;;;;;;6.20;5.53;;;;;;;22.95;100.00;99663.57;1604829;89;21678;-55
2022/07/25 03:20:03;;;;;;;6.57;5.30;;;;;;;23.49;100.00;99663.86;1632487;87;21166;-56
2022/07/25 03:22:31;;;;;;;7.47;6.10;;;;;;;24.03;100.00;99654.72;1604705;89;21039;-60
2022/07/25 03:24:58;;;;;;;7.20;5.50;;;;;;;24.61;100.00;99655.76;1631793;87;20947;-65
2022/07/25 03:27:26;;;;;;;6.87;5.90;;;;;;;25.37;100.00;99647.55;1605397;89;21692;-57
2022/07/25 03:29:55;;;;;;;7.43;5.70;;;;;;;26.01;100.00;99642.28;1632936;87;21598;-56
2022/07/25 03:32:23;;;;;;;7.97;6.92;;;;;;;26.50;100.00;99640.67;1605479;88;21179;-57
2022/07/25 03:34:51;;;;;;;7.08;6.20;;;;;;;27.33;100.00;99638.31;1631923;87;20987;-59
2022/07/25 03:37:18;;;;;;;7.40;6.62;;;;;;;28.16;100.00;99639.69;1604938;89;21455;-56
2022/07/25 03:39:45;;;;;;;7.17;6.47;;;;;;;28.24;100.00;99642.91;1632249;87;21039;-56
2022/07/25 03:42:13;;;;;;;7.12;6.45;;;;;;;27.98;100.00;99645.58;1605033;89;21143;-57
2022/07/25 03:44:40;;;;;;;7.47;6.78;;;;;;;27.73;100.00;99654.32;1633151;87;22506;-57
2022/07/25 03:47:09;;;;;;;6.92;6.33;;;;;;;27.67;100.00;99656.92;1604123;88;21018;-57
2022/07/25 03:49:36;;;;;;;7.28;6.53;;;;;;;27.58;100.00;99659.59;1632766;87;20982;-57
2022/07/25 03:52:04;;;;;;;7.22;6.53;;;;;;;27.63;100.00;99660.77;1605116;88;21075;-58
2022/07/25 03:54:31;;;;;;;7.78;6.53;;;;;;;27.79;100.00;99663.27;1632978;87;21113;-56
2022/07/25 03:57:00;;;;;;;8.55;7.03;;;;;;;27.71;100.00;99665.36;1604318;88;21243;-58
2022/07/25 03:59:28;;;;;;;7.60;6.30;;;;;;;27.39;100.00;99660.63;1632483;87;21330;-57
2022/07/25 04:01:57;;;;;;;8.23;7.42;;;;;;;27.09;100.00;99665.42;1605405;89;21150;-56
2022/07/25 04:06:20;;;;;;;7.87;7.07;;;;;;;26.88;100.00;99668.59;1849945;77;22600;-56
2022/07/25 04:08:49;;;;;;;8.43;7.40;;;;;;;27.13;100.00;99669.09;1822011;78;21506;-59
2022/07/25 04:11:17;;;;;;;8.10;7.30;;;;;;;27.62;100.00;99657.86;1821244;78;21137;-61
2022/07/25 04:13:44;;;;;;;7.83;7.05;;;;;;;28.25;100.00;99660.56;1822096;78;21022;-57
2022/07/25 04:16:11;;;;;;;6.45;5.33;;;;;;;28.81;100.00;99657.46;1821892;78;20912;-57
2022/07/25 04:18:39;;;;;;;7.53;6.83;;;;;;;28.96;100.00;99659.41;1821651;78;20971;-57
2022/07/25 04:21:07;;;;;;;7.75;6.75;;;;;;;28.92;100.00;99654.45;1820825;78;21481;-58
2022/07/25 04:23:35;;;;;;;6.77;6.17;;;;;;;29.01;100.00;99657.35;1820958;78;21630;-57
2022/07/25 04:26:02;;;;;;;7.62;6.65;;;;;;;29.34;100.00;99654.87;1821269;78;20970;-57
2022/07/25 04:28:31;;;;;;;7.17;6.53;;;;;;;29.50;100.00;99652.97;1821258;78;21007;-58
2022/07/25 04:30:58;;;;;;;7.90;6.72;;;;;;;29.23;100.00;99652.30;1820667;78;21058;-57
2022/07/25 04:33:26;;;;;;;6.83;5.90;;;;;;;29.33;100.00;99648.48;1821141;78;20967;-67
2022/07/25 04:35:54;;;;;;;6.15;5.40;;;;;;;29.94;100.00;99645.48;1821337;78;21603;-57
2022/07/25 04:38:21;;;;;;;6.15;5.42;;;;;;;30.84;100.00;99644.08;1820899;78;21043;-58
2022/07/25 04:40:48;;;;;;;6.50;5.22;;;;;;;31.52;87.83;99640.36;1820291;78;20964;-58
2022/07/25 04:43:16;;;;;;;5.37;4.87;;;;;;;31.87;79.21;99637.18;1821659;78;21886;-57
2022/07/25 04:45:43;;;;;;;5.90;5.30;;;;;;;32.23;76.95;99634.34;1820056;78;21070;-58
2022/07/25 04:48:10;;;;;;;5.55;4.97;;;;;;;32.97;73.11;99632.67;1820896;78;22033;-58
2022/07/25 04:50:38;;;;;;;5.35;4.85;;;;;;;33.96;64.62;99630.66;1821419;78;20876;-58
2022/07/25 04:53:06;;;;;;;6.03;4.62;;;;;;;34.80;57.35;99631.88;1820710;78;21002;-61
2022/07/25 04:55:35;;;;;;;5.60;5.10;;;;;;;35.37;52.75;99631.45;1820597;78;21362;-65
2022/07/25 04:58:02;;;;;;;5.80;5.30;;;;;;;35.82;50.66;99629.19;1821005;78;20920;-57
2022/07/25 05:00:30;;;;;;;6.72;6.12;;;;;;;36.30;48.92;99628.03;1821329;78;21248;-58
2022/07/25 05:02:57;;;;;;;5.78;5.28;;;;;;;36.73;47.31;99624.97;1820975;78;20992;-59
2022/07/25 05:05:24;;;;;;;6.47;5.97;;;;;;;37.29;46.04;99625.23;1816144;78;21619;-58
2022/07/25 05:07:57;;;;;;;6.72;6.20;;;;;;;37.97;44.04;99627.75;1809429;79;21557;-60
2022/07/25 05:10:28;;;;;;;8.43;6.60;;;;;;;38.32;42.46;99624.16;1810146;79;21543;-59
2022/07/25 05:12:55;;;;;;;6.83;6.22;;;;;;;38.69;41.04;99621.89;1809624;78;21897;-64
2022/07/25 05:15:23;;;;;;;7.00;6.40;;;;;;;38.92;40.03;99625.62;1809631;78;21047;-57
2022/07/25 05:17:51;;;;;;;7.42;6.70;;;;;;;38.94;39.83;99629.30;1809236;79;20873;-59
2022/07/25 05:20:20;;;;;;;6.80;6.12;;;;;;;39.08;39.12;99624.43;1809519;79;21054;-58
2022/07/25 05:22:49;;;;;;;6.67;6.08;;;;;;;39.46;38.30;99626.14;1808767;79;20959;-66
2022/07/25 05:25:16;;;;;;;7.37;6.67;;;;;;;39.84;37.08;99627.97;1809190;79;21617;-58
2022/07/25 05:27:44;;;;;;;7.97;7.28;;;;;;;40.04;36.42;99624.16;1809278;79;20974;-65
2022/07/25 05:30:13;;;;;;;6.37;5.78;;;;;;;40.14;36.17;99625.31;1809616;79;20911;-58
2022/07/25 05:32:41;;;;;;;7.40;6.70;;;;;;;40.36;35.51;99621.88;1809327;79;21007;-66
2022/07/25 05:35:09;;;;;;;6.37;5.78;;;;;;;40.56;35.00;99617.45;1809128;79;20947;-58
2022/07/25 05:37:37;;;;;;;6.55;5.95;;;;;;;40.82;34.62;99609.83;1809531;79;21802;-57
2022/07/25 05:40:06;;;;;;;5.67;4.97;;;;;;;41.37;34.10;99604.83;1809161;79;21011;-59
2022/07/25 05:42:34;;;;;;;5.95;5.17;;;;;;;41.75;32.33;99602.83;1809083;79;21010;-58
2022/07/25 05:45:02;;;;;;;5.15;4.53;;;;;;;42.03;31.40;99607.77;1809236;79;21037;-59
2022/07/25 05:47:29;;;;;;;6.42;5.42;;;;;;;42.34;30.62;99607.73;1809344;79;21397;-58
2022/07/25 05:49:56;;;;;;;6.10;5.60;;;;;;;42.74;30.68;99602.60;1809916;79;21866;-65
2022/07/25 05:52:24;;;;;;;6.53;6.03;;;;;;;42.97;31.12;99601.80;1808630;79;20991;-58
2022/07/25 05:54:51;;;;;;;6.50;5.40;;;;;;;42.86;30.66;99601.22;1809005;79;20987;-58
2022/07/25 05:57:18;;;;;;;5.62;5.12;;;;;;;42.49;31.45;99596.72;1808117;79;21098;-58
2022/07/25 05:59:46;;;;;;;6.95;5.40;;;;;;;42.20;31.72;99597.13;1809399;79;21007;-58
2022/07/25 06:02:13;;;;;;;6.30;5.80;;;;;;;41.69;32.20;99592.14;1809488;79;21413;-60
2022/07/25 06:04:40;;;;;;;5.85;5.10;;;;;;;41.34;32.73;99594.70;1808958;78;20966;-58
2022/07/25 06:07:07;;;;;;;6.20;5.70;;;;;;;41.19;32.65;99593.31;1808799;79;20990;-62
2022/07/25 06:09:34;;;;;;;5.37;4.87;;;;;;;40.85;32.75;99587.17;1809362;79;21037;-59
2022/07/25 06:12:03;;;;;;;6.47;5.85;;;;;;;40.71;33.66;99590.02;1809076;79;20944;-62
2022/07/25 06:14:30;;;;;;;6.53;5.90;;;;;;;40.61;33.15;99587.55;1808820;79;21992;-62
2022/07/25 06:16:57;;;;;;;6.28;5.60;;;;;;;40.41;33.85;99590.63;1808505;79;21093;-59
2022/07/25 06:19:26;;;;;;;6.37;5.87;;;;;;;40.15;34.18;99594.11;1809447;79;22023;-58
2022/07/25 06:21:53;;;;;;;5.80;5.20;;;;;;;39.68;34.75;99584.00;1809461;79;21616;-57
2022/07/25 06:24:20;;;;;;;4.95;4.08;;;;;;;39.35;34.74;99579.80;1809703;79;21046;-58
2022/07/25 06:26:47;;;;;;;4.22;3.83;;;;;;;39.22;34.29;99576.70;1808046;79;21239;-65
2022/07/25 06:29:16;;;;;;;6.75;3.95;;;;;;;39.49;32.84;99576.27;1808855;79;22209;-57
2022/07/25 06:31:43;;;;;;;4.65;3.85;;;;;;;40.00;31.63;99574.86;1809613;79;20864;-58
2022/07/25 06:34:12;;;;;;;4.75;4.15;;;;;;;40.45;30.72;99570.88;1809859;79;20885;-65
2022/07/25 06:36:40;;;;;;;4.80;3.87;;;;;;;40.72;30.29;99567.74;1808808;79;20922;-59
2022/07/25 06:39:09;;;;;;;5.95;3.77;;;;;;;40.95;29.91;99573.97;1809279;79;22862;-58
2022/07/25 06:41:37;;;;;;;4.62;4.22;;;;;;;41.35;29.94;99559.31;1808934;79;21010;-60
2022/07/25 06:44:04;;;;;;;5.15;4.65;;;;;;;41.75;30.05;99559.04;1809725;79;20960;-58
2022/07/25 06:46:32;;;;;;;5.17;4.67;;;;;;;41.99;29.25;99559.89;1809182;79;20896;-58
2022/07/25 06:48:59;;;;;;;5.37;4.87;;;;;;;42.14;30.31;99550.87;1808657;79;21296;-58
2022/07/25 06:51:27;;;;;;;5.10;4.70;;;;;;;42.43;29.89;99550.44;1809768;79;21321;-58
2022/07/25 06:53:55;;;;;;;4.65;4.15;;;;;;;42.72;29.47;99548.78;1809129;79;20932;-59
2022/07/25 06:56:23;;;;;;;4.85;4.45;;;;;;;43.32;27.93;99546.11;1809119;79;21018;-62
2022/07/25 06:58:52;;;;;;;4.85;4.45;;;;;;;43.32;27.93;99546.11;1786089;79;21506;-58
2022/07/25 07:01:19;;;;;;;4.37;3.85;;;;;;;43.52;27.32;99547.48;1809747;79;21410;-58
2022/07/25 07:03:47;;;;;;;5.03;4.58;;;;;;;43.63;27.21;99551.37;1809169;79;22378;-58
2022/07/25 07:06:14;;;;;;;4.90;4.50;;;;;;;43.63;27.04;99550.00;1807426;78;20955;-58
2022/07/25 07:08:42;;;;;;;6.92;4.72;;;;;;;43.79;27.82;99551.99;1804278;79;20905;-66
2022/07/25 07:11:10;;;;;;;5.97;5.12;;;;;;;44.19;27.23;99549.92;1804579;79;22436;-58
2022/07/25 07:13:39;;;;;;;4.65;4.10;;;;;;;44.34;26.01;99549.77;1804256;79;20932;-58
2022/07/25 07:16:07;;;;;;;4.80;4.30;;;;;;;44.04;25.69;99545.36;1805065;79;21282;-57
2022/07/25 07:18:34;;;;;;;4.50;4.10;;;;;;;43.48;26.02;99543.44;1804030;79;20915;-60
2022/07/25 07:21:04;;;;;;;4.85;4.42;;;;;;;43.03;26.24;99546.46;1804939;79;22054;-58
2022/07/25 07:23:31;;;;;;;4.90;4.40;;;;;;;42.83;27.17;99540.97;1805069;79;20987;-58
2022/07/25 07:25:58;;;;;;;4.33;3.92;;;;;;;42.96;26.48;99536.40;1804877;79;21039;-56
2022/07/25 07:28:25;;;;;;;4.08;3.67;;;;;;;42.90;26.26;99540.23;1803707;79;21260;-62
2022/07/25 07:30:53;;;;;;;3.90;3.60;;;;;;;42.87;26.02;99537.56;1803987;79;21086;-58
2022/07/25 07:33:20;;;;;;;4.17;3.77;;;;;;;42.66;25.44;99529.92;1804498;79;20995;-59
2022/07/25 07:35:48;;;;;;;4.05;3.75;;;;;;;42.33;26.05;99537.70;1805007;79;21395;-58
2022/07/25 07:38:16;;;;;;;4.50;3.87;;;;;;;41.89;26.85;99536.78;1803982;79;21545;-58
2022/07/25 07:40:44;;;;;;;3.40;3.10;;;;;;;41.36;27.30;99536.84;1803551;79;21793;-58
2022/07/25 07:43:11;;;;;;;4.45;3.80;;;;;;;40.61;27.86;99532.91;1803869;79;21258;-58
2022/07/25 07:45:38;;;;;;;3.98;3.30;;;;;;;39.96;28.40;99535.91;1804248;79;20983;-59
2022/07/25 07:48:06;;;;;;;6.05;3.08;;;;;;;39.21;29.51;99532.91;1804717;79;20964;-66
2022/07/25 07:50:35;;;;;;;3.35;2.98;;;;;;;38.70;29.67;99530.83;1804080;79;21046;-59
2022/07/25 07:53:02;;;;;;;5.85;2.62;;;;;;;38.48;29.33;99519.75;1804696;79;22325;-60
2022/07/25 07:55:47;;;;;;;3.27;2.52;;;;;;;38.25;30.18;99520.70;1804003;79;21044;-57
2022/07/25 07:58:16;;;;;;;2.95;2.30;;;;;;;38.69;29.70;99518.97;1803826;79;21006;-58
2022/07/25 08:00:46;;;;;;;3.65;2.80;;;;;;;39.15;29.74;99516.75;1803666;79;22194;-65
2022/07/25 08:03:20;;;;;;;3.37;2.80;;;;;;;39.85;29.36;99520.95;1804813;79;21376;-58
2022/07/25 08:05:48;;;;;;;4.05;2.60;;;;;;;40.51;28.04;99514.06;1805234;78;21227;-61
2022/07/25 08:08:15;;;;;;;3.42;2.65;;;;;;;41.13;27.70;99517.77;1809166;79;20966;-57
2022/07/25 08:10:44;;;;;;;3.60;3.27;;;;;;;41.71;26.41;99514.53;1808937;79;21501;-58
2022/07/25 08:13:18;;;;;;;2.90;2.42;;;;;;;42.19;25.30;99506.58;1808704;79;20978;-57
2022/07/25 08:15:47;;;;;;;5.75;3.55;;;;;;;42.12;25.32;99502.58;1809438;79;22291;-63
2022/07/25 08:18:16;;;;;;;2.30;2.10;;;;;;;41.45;24.66;99515.28;1808533;79;21809;-57
2022/07/25 08:20:43;;;;;;;2.75;2.40;;;;;;;40.44;25.72;99514.71;1808752;79;20971;-57
2022/07/25 08:23:12;;;;;;;3.27;2.97;;;;;;;39.78;26.85;99520.43;1809263;79;21034;-59
2022/07/25 08:25:41;;;;;;;2.98;2.17;;;;;;;39.31;27.98;99514.38;1809477;79;20995;-57
2022/07/25 08:28:09;;;;;;;6.62;2.33;;;;;;;39.09;27.94;99514.23;1808986;79;21107;-61
2022/07/25 08:30:37;;;;;;;2.33;1.87;;;;;;;38.94;28.74;99512.13;1808940;79;21549;-59
2022/07/25 08:33:09;;;;;;;2.90;2.30;;;;;;;39.02;29.08;99515.61;1808836;79;21850;-57
2022/07/25 08:35:36;;;;;;;4.37;2.52;;;;;;;39.37;28.37;99510.08;1809940;79;20971;-59
2022/07/25 08:38:04;;;;;;;4.00;2.27;;;;;;;39.82;27.95;99511.63;1808657;79;21285;-61
2022/07/25 08:40:32;;;;;;;4.30;2.33;;;;;;;40.31;27.17;99510.31;1808735;79;21319;-58
2022/07/25 08:43:00;;;;;;;3.20;2.33;;;;;;;40.75;26.26;99499.99;1809020;79;21631;-57
2022/07/25 08:45:28;;;;;;;2.87;2.10;;;;;;;41.09;26.61;99498.67;1809288;79;20978;-57
2022/07/25 08:47:56;;;;;;;3.83;2.10;;;;;;;41.41;25.78;99502.22;1809260;79;21462;-64
2022/07/25 08:50:27;;;;;;;2.17;1.87;;;;;;;41.75;25.71;99494.72;1809289;79;20999;-64
2022/07/25 08:54:31;;;;;;;2.50;2.10;;;;;;;41.48;24.78;99492.55;1793736;79;22436;-59
2022/07/25 08:56:58;;;;;;;2.70;2.10;;;;;;;40.81;25.58;99494.28;1753177;80;21020;-62
2022/07/25 08:59:25;;;;;;;3.17;2.22;;;;;;;39.91;26.83;99505.72;1753774;81;21144;-58
2022/07/25 09:01:52;;;;;;;2.70;2.30;;;;;;;39.15;27.90;99500.39;1753654;81;20928;-58
2022/07/25 09:04:19;;;;;;;3.60;2.30;;;;;;;38.61;28.02;99503.22;1753896;81;20983;-59
2022/07/25 09:06:50;;;;;;;4.15;2.30;;;;;;;37.98;28.84;99495.98;1754061;81;21675;-62
2022/07/25 09:09:17;;;;;;;2.77;2.02;;;;;;;37.44;30.09;99493.69;1753308;80;21058;-66
2022/07/25 09:11:45;;;;;;;2.62;1.80;;;;;;;37.08;30.79;99495.42;1753646;81;22456;-62
2022/07/25 09:14:14;;;;;;;4.10;2.02;;;;;;;36.76;31.47;99493.86;1754050;81;20956;-59
2022/07/25 09:16:43;;;;;;;3.67;1.98;;;;;;;36.51;32.50;99490.96;1754017;81;21035;-59
2022/07/25 09:19:19;;;;;;;2.83;2.12;;;;;;;36.39;32.82;99488.52;1753637;81;21011;-58
2022/07/25 09:22:03;;;;;;;3.98;2.67;;;;;;;36.48;33.46;99484.38;1753951;81;21126;-58
2022/07/25 09:24:31;;;;;;;3.62;2.25;;;;;;;36.88;32.67;99485.40;1753428;81;21229;-67
2022/07/25 09:27:00;;;;;;;2.60;2.00;;;;;;;37.30;32.57;99478.64;1753219;81;21513;-59
2022/07/25 09:29:32;;;;;;;2.30;1.97;;;;;;;37.71;31.47;99482.50;1753161;81;21525;-58
2022/07/25 09:32:00;;;;;;;3.25;2.27;;;;;;;38.09;30.65;99478.89;1753728;81;20975;-58
2022/07/25 09:34:37;;;;;;;2.60;2.00;;;;;;;38.20;30.69;99479.09;1754162;81;20991;-60
2022/07/25 09:37:13;;;;;;;4.40;2.02;;;;;;;38.06;30.36;99475.58;1752823;81;21397;-60
2022/07/25 09:39:47;;;;;;;6.20;1.80;;;;;;;37.86;31.13;99474.56;1753708;81;21035;-56
2022/07/25 09:42:23;;;;;;;2.65;2.12;;;;;;;37.94;30.91;99476.15;1753416;81;20987;-67
2022/07/25 09:45:08;;;;;;;2.60;2.00;;;;;;;37.93;30.98;99480.63;1752933;81;21329;-60
2022/07/25 09:47:37;;;;;;;6.28;2.37;;;;;;;37.63;31.58;99485.01;1753683;81;21086;-58
2022/07/25 09:50:05;;;;;;;3.70;2.10;;;;;;;37.36;31.59;99483.14;1753191;81;21843;-58
2022/07/25 09:52:33;;;;;;;2.98;2.12;;;;;;;37.06;31.85;99485.53;1753118;81;21103;-57
2022/07/25 09:55:03;;;;;;;4.12;2.50;;;;;;;37.04;32.66;99483.77;1754153;81;21032;-57
2022/07/25 09:57:30;;;;;;;;;;;;;;;37.14;32.83;99483.05;1756798;81;20924;-58
2022/07/25 09:59:59;;;;;;;4.08;2.00;;;;;;;37.15;32.60;99478.38;1753469;81;20180;-57
2022/07/25 10:02:49;;;;;;;2.42;1.87;;;;;;;37.13;32.23;99482.08;1753552;81;21348;-58
2022/07/25 10:06:03;;;;;;;3.52;2.30;;;;;;;37.20;32.70;99482.89;1753868;81;20967;-58
2022/07/25 10:08:39;;;;;;;2.10;1.90;;;;;;;37.46;32.17;99472.91;1753312;81;20979;-57
2022/07/25 10:11:19;;;;;;;4.28;2.50;;;;;;;37.56;31.22;99473.52;1752900;81;20932;-58
2022/07/25 10:13:48;;;;;;;2.52;1.95;;;;;;;37.46;31.37;99475.62;1738440;81;21003;-58
2022/07/25 10:16:22;;;;;;;2.90;2.10;;;;;;;37.22;31.90;99473.76;1753263;81;21571;-60
2022/07/25 10:18:55;;;;;;;2.72;1.80;;;;;;;36.98;32.32;99476.56;1752522;81;21328;-59
2022/07/25 10:21:24;;;;;;;3.30;1.98;;;;;;;36.83;32.70;99473.55;1753621;81;21553;-59
2022/07/25 10:24:05;;;;;;;2.60;2.05;;;;;;;36.70;32.53;99477.72;1754181;81;20939;-57
2022/07/25 10:26:35;;;;;;;2.22;2.00;;;;;;;36.50;32.99;99474.48;1753165;81;21078;-59
2022/07/25 10:29:08;;;;;;;2.77;1.90;;;;;;;36.33;33.33;99475.86;1752933;80;22222;-58
2022/07/25 10:31:38;;;;;;;2.33;1.90;;;;;;;36.19;32.66;99471.69;1753668;81;21003;-57
2022/07/25 10:34:07;;;;;;;2.70;2.25;;;;;;;36.04;33.01;99472.92;1753872;81;21545;-57
2022/07/25 10:36:51;;;;;;;2.05;1.85;;;;;;;35.88;33.07;99471.55;1753311;81;21042;-66
2022/07/25 10:39:21;;;;;;;3.22;2.30;;;;;;;35.66;33.68;99466.50;1753703;81;21023;-57
2022/07/25 10:41:57;;;;;;;3.22;1.92;;;;;;;35.42;33.58;99468.55;1753808;81;21063;-58
2022/07/25 10:44:29;;;;;;;2.75;2.20;;;;;;;35.19;33.46;99467.84;1752919;81;20944;-66
2022/07/25 10:47:08;;;;;;;3.30;2.27;;;;;;;34.94;33.27;99462.09;1753545;81;21030;-57
2022/07/25 10:49:41;;;;;;;2.40;2.10;;;;;;;34.75;34.39;99458.92;1761394;81;20976;-57
2022/07/25 10:52:14;;;;;;;2.80;2.35;;;;;;;34.68;34.10;99464.23;1761319;81;21026;-65
2022/07/25 10:54:55;;;;;;;3.95;2.17;;;;;;;34.57;34.13;99459.42;1731762;82;21251;-57
2022/07/25 10:57:22;;;;;;;2.33;2.12;;;;;;;34.52;34.28;99453.56;1748088;82;21557;-58
2022/07/25 10:59:49;;;;;;;3.10;2.20;;;;;;;34.55;34.37;99450.91;1747566;82;20991;-65
2022/07/25 11:02:16;;;;;;;2.40;2.20;;;;;;;34.60;34.18;99453.30;1748068;82;20960;-58
2022/07/25 11:04:58;;;;;;;3.62;2.30;;;;;;;34.64;34.36;99447.94;1747979;82;21059;-58
2022/07/25 11:07:27;;;;;;;2.50;2.00;;;;;;;34.68;34.00;99444.70;1747830;82;21327;-57
2022/07/25 11:09:59;;;;;;;3.72;2.05;;;;;;;34.61;33.33;99445.95;1711743;83;20988;-56
2022/07/25 11:12:30;;;;;;;2.58;2.20;;;;;;;34.53;33.77;99446.99;1712324;83;20967;-57
2022/07/25 11:15:08;;;;;;;3.37;2.52;;;;;;;34.41;34.14;99447.95;1712457;83;20951;-59
2022/07/25 11:17:36;;;;;;;2.52;2.33;;;;;;;34.41;34.60;99448.52;1711685;83;20951;-57
2022/07/25 11:20:07;;;;;;;2.80;2.40;;;;;;;34.42;34.90;99442.73;1712178;83;21154;-59
2022/07/25 11:22:34;;;;;;;;;;;;;;;34.52;34.28;99442.73;1714284;83;21047;-57
2022/07/25 11:25:04;;;;;;;3.02;2.33;;;;;;;34.58;34.58;99437.98;1695997;84;20170;-58
2022/07/25 11:27:32;;;;;;;2.42;2.12;;;;;;;34.56;34.11;99433.52;1695584;84;21440;-58
2022/07/25 11:30:10;;;;;;;2.55;2.08;;;;;;;34.39;34.48;99436.69;1704360;83;21031;-57
2022/07/25 11:32:46;;;;;;;2.98;2.05;;;;;;;34.25;34.82;99427.02;1704267;83;21247;-65
2022/07/25 11:35:14;;;;;;;3.45;2.42;;;;;;;34.21;35.78;99424.25;1703387;83;21952;-63
2022/07/25 11:37:43;;;;;;;2.80;2.20;;;;;;;34.24;36.57;99430.84;1704279;84;21091;-56
2022/07/25 11:40:10;;;;;;;4.55;2.80;;;;;;;34.35;37.39;99430.45;1704398;84;21054;-57
2022/07/25 11:42:40;;;;;;;6.30;3.00;;;;;;;34.48;36.42;99433.17;1704970;83;20978;-64